Impacts METAR Board
IDs:

KLZZ - Lampasas Arpt, TX, US

Updated at: 0000 UTC 19 Oct 2019
Potential Impact None Slight Moderate High
Time 18/12Z 18/13Z 18/14Z 18/15Z 18/16Z 18/17Z 18/18Z 18/19Z 18/20Z 18/21Z 18/22Z 18/23Z 19/00Z
Temp44 45 51 57 64 69 73 75 78 80 80 78
Dewpt41 42 44 47 48 47 49 50 51 52 52 51
Altim29.89 29.88 29.89 29.89 29.87 29.85 29.83 29.79 29.75 29.73 29.72 29.72
VIS10 10 10 10 10 10 10 10 10 5 10 10
CIG-- -- -- -- -- -- -- -- -- -- -- --
CoverCLRCLRCLRCLRCLRCLRCLRCLRCLRCLRCLRCLR
FltCatVFRVFRVFRVFRVFRVFRVFRVFRVFRMVFRVFRVFR
WX------------------HZ----
WDir000140120130170120120160130130
WSpd0 0 0 5 6 6 5 6 8 8 9 8
WGst-- -- -- -- -- -- -- -- -- -- 16 --
Raw hourly METARs
KLZZ 181155Z AUTO 00000KT 10SM CLR 06/05 A2989 RMK AO2 T00640049 10113 20064
KLZZ 181255Z AUTO 00000KT 10SM CLR 07/06 A2988 RMK AO2 T00740056
KLZZ 181355Z AUTO 00000KT 10SM CLR 10/07 A2989 RMK AO2 T01040069
KLZZ 181455Z AUTO 14005KT 10SM CLR 14/08 A2989 RMK AO2 T01390081
KLZZ 181555Z AUTO 12006KT 10SM CLR 18/09 A2987 RMK AO2 T01790090
KLZZ 181655Z AUTO 13006KT 10SM CLR 20/09 A2985 RMK AO2 T02030086
KLZZ 181755Z AUTO 17005KT 10SM CLR 23/09 A2983 RMK AO2 T02260094 10227 20061
KLZZ 181855Z AUTO 12006KT 10SM CLR 24/10 A2979 RMK AO2 T02400098
KLZZ 181955Z AUTO 12008KT 110V170 10SM CLR 26/11 A2975 RMK AO2 T02560107
KLZZ 182055Z AUTO 16008KT 5SM HZ CLR 27/11 A2973 RMK AO2 T02670112
KLZZ 182155Z AUTO 13009G16KT 10SM CLR 27/11 A2972 RMK AO2 T02650112
KLZZ 182255Z AUTO 13008KT 10SM CLR 26/11 A2972 RMK AO2 T02560107